Lowell, Arizona
Current Conditions -  °F | °C
As of 5:56 PM on Tuesday 27 Jan 2015 (Local Time) from KDUG Reporting Station
Few Clouds Few Clouds  
Wind Chill: 64°   Ceiling: Unl
Heat Index: 64°   Visibility: 10mi
Dew Point: 38°   Wind: 3mph
Humidity: 38%   Direction: 140°SE
Pressure: 30.19"   Gusts: NA
Location:  31.4799°N, 109.96°W
Report Text: KDUG 280056Z AUTO 14003KT 10SM FEW090 18/03 A3019 RMK AO2 SLP185 T01780033
Loading
Personal Weather Stations






























Interactive Weather Map New forecast layout! Learn more

10-Day Weather Forecast

Advertisements
Track Severe Weather on mobile